Home > Products > Valid Products > TAF

000
FTUS46 KSGX 181500 AAA
TAFSNA
TAF AMD
KSNA 181506Z 1815/1912 VRB05KT P6SM SCT020 OVC035
     FM182000 21010KT P6SM SCT035 BKN120
     FM190200 VRB05KT P6SM BKN025=



000
FTUS46 KSGX 181500 AAA
TAFONT
TAF AMD
KONT 181504Z 1815/1918 26008KT 5SM BR BKN015 OVC030
     FM181800 26008KT P6SM BKN025
     FM181900 25010KT P6SM SCT025 BKN120
     FM190400 VRB04KT P6SM BKN018
     FM191700 VRB04KT P6SM SCT020=



000
FTUS46 KSGX 181400 AAA
TAFSAN
TAF AMD
KSAN 181440Z 1815/1918 18007KT P6SM OVC025
     FM182000 21009KT P6SM BKN030 BKN120
     FM190100 VRB05KT P6SM BKN025
     FM191700 VRB04KT P6SM SCT025=



000
FTUS46 KSGX 181100
TAFSAN
TAF
KSAN 181123Z 1812/1918 18007KT P6SM OVC030
     FM182000 21010KT P6SM SCT030 BKN120
     FM190000 VRB05KT P6SM BKN025
     FM191700 VRB04KT P6SM SCT025=



000
FTUS46 KSGX 181100
TAFONT
TAF
KONT 181123Z 1812/1918 VRB04KT P6SM OVC020
     FM181900 25010KT P6SM SCT025 BKN120
     FM190400 VRB04KT P6SM BKN018
     FM191700 VRB04KT P6SM SCT020=



000
FTUS46 KSGX 181100
TAFTRM
TAF
KTRM 181123Z 1812/1912 VRB05KT P6SM BKN200
     FM181900 13009KT P6SM BKN150
     FM190100 29009KT P6SM BKN120
     FM190500 33009KT P6SM BKN120=



000
FTUS46 KSGX 181100
TAFPSP
TAF
KPSP 181123Z 1812/1912 VRB05KT P6SM BKN200
     FM182200 33010G18KT P6SM BKN120
     FM190400 33008KT P6SM BKN120=



000
FTUS46 KSGX 181100
TAFSNA
TAF
KSNA 181123Z 1812/1912 15006KT P6SM OVC025
     FM182000 21010KT P6SM SCT030 BKN120
     FM190200 VRB05KT P6SM BKN025=



000
FTUS46 KSGX 181100
TAFCRQ
TAF
KCRQ 181123Z 1812/1912 16005KT P6SM OVC022
     FM182000 23008KT P6SM BKN025 BKN120
      TEMPO 1820/1824 SCT025
     FM190000 VRB05KT P6SM BKN020=



000
FTUS46 KSGX 180900 AAA
TAFCRQ
TAF AMD
KCRQ 180908Z 1809/1906 15005KT P6SM OVC020
     FM181900 22009KT P6SM SCT020 SCT030
     FM190000 23006KT P6SM BKN020=



000
FTUS46 KSGX 180900 AAA
TAFSAN
TAF AMD
KSAN 180907Z 1809/1912 18007KT P6SM OVC025
     FM181900 21010KT P6SM SCT025 SCT035
     FM190100 24006KT P6SM BKN025=



000
FTUS46 KSGX 180700 AAA
TAFSNA
TAF AMD
KSNA 180710Z 1807/1906 15006KT P6SM BKN025
     FM182000 23009KT P6SM BKN025
     FM190200 23005KT P6SM BKN025=



000
FTUS46 KSGX 180500 AAA
TAFONT
TAF AMD
KONT 180533Z 1806/1912 26007KT P6SM BKN015
     FM182000 26011KT P6SM BKN020
     FM190400 26006KT P6SM BKN025=



000
FTUS46 KSGX 180500
TAFSAN
TAF
KSAN 180520Z 1806/1912 17008KT P6SM OVC020
     FM181900 19010KT P6SM BKN023
     FM190200 24006KT P6SM BKN028=



000
FTUS46 KSGX 180500
TAFTRM
TAF
KTRM 180520Z 1806/1906 VRB06KT P6SM BKN200
     FM181700 12008KT P6SM BKN150
     FM190300 33011KT P6SM SCT150=



000
FTUS46 KSGX 180500
TAFONT
TAF
KONT 180520Z 1806/1912 25008KT P6SM BKN250
     FM180800 24005KT 5SM BR BKN012
     FM182000 26011KT P6SM BKN020
     FM190400 26006KT P6SM BKN025=



000
FTUS46 KSGX 180500
TAFCRQ
TAF
KCRQ 180520Z 1806/1906 19007KT P6SM OVC014
     FM181900 21010KT P6SM BKN020
     FM190200 23006KT P6SM BKN025=



000
FTUS46 KSGX 180500
TAFPSP
TAF
KPSP 180520Z 1806/1906 33007KT P6SM BKN200
     FM181500 13006KT P6SM BKN150
     FM190100 33012KT P6SM SCT150=



000
FTUS46 KSGX 180500
TAFSNA
TAF
KSNA 180520Z 1806/1906 16010KT P6SM OVC017
     FM182000 23009KT P6SM BKN022
     FM190200 23005KT P6SM BKN025=



000
FTUS46 KSGX 180200 AAB
TAFSAN
TAF AMD
KSAN 180259Z 1803/1906 17007KT P6SM OVC020
     FM181900 19010KT P6SM BKN025
     FM190000 22010KT P6SM SCT030
     FM190300 26006KT P6SM BKN026=



000
FTUS46 KSGX 180200 AAA
TAFSNA
TAF AMD
KSNA 180241Z 1803/1824 18007KT P6SM BKN019 OVC025
     FM182000 23009KT P6SM BKN022=



000
FTUS46 KSGX 180200 AAA
TAFCRQ
TAF AMD
KCRQ 180227Z 1802/1824 20007KT P6SM OVC016
     FM182000 23010KT P6SM BKN021=



000
FTUS46 KSGX 180000 AAA
TAFSAN
TAF AMD
KSAN 180035Z 1801/1906 20008KT P6SM BKN025 OVC200
     FM180400 17007KT P6SM OVC025
     FM181900 19010KT P6SM BKN027
     FM190000 22010KT P6SM SCT030
     FM190300 26006KT P6SM BKN026=



000
FTUS46 KSGX 172300
TAFONT
TAF
KONT 172321Z 1800/1906 26012G20KT P6SM BKN200
     FM180500 26006KT P6SM BKN200
     FM180800 24005KT 5SM BR BKN012
     FM182100 26011KT P6SM SCT025 SCT200
     FM190400 26006KT P6SM BKN025=



000
FTUS46 KSGX 172300
TAFCRQ
TAF
KCRQ 172321Z 1800/1824 22007KT P6SM SCT019 BKN200
      TEMPO 1800/1803 BKN019
     FM180300 18005KT P6SM OVC020
     FM182000 23010KT P6SM BKN025=



000
FTUS46 KSGX 172300
TAFSAN
TAF
KSAN 172321Z 1800/1906 19008KT P6SM SCT023 BKN200
     FM180300 17007KT P6SM OVC025
     FM181900 19010KT P6SM BKN027
     FM190000 22010KT P6SM SCT030
     FM190300 26006KT P6SM BKN026=



000
FTUS46 KSGX 172300
TAFTRM
TAF
KTRM 172321Z 1800/1824 15009KT P6SM BKN200
     FM180500 33007KT P6SM BKN200
     FM181500 12008KT P6SM BKN150=



000
FTUS46 KSGX 172300
TAFSNA
TAF
KSNA 172321Z 1800/1824 24009KT P6SM SCT023 BKN250
     FM180400 18007KT P6SM OVC023
     FM182000 23009KT P6SM BKN025=



000
FTUS46 KSGX 172300
TAFPSP
TAF
KPSP 172321Z 1800/1824 06005KT P6SM BKN200
     FM180300 32007KT P6SM BKN200
     FM181500 13006KT P6SM BKN150=



000
FTUS46 KSGX 171900 AAA
TAFCRQ
TAF AMD
KCRQ 171953Z 1720/1818 24008KT P6SM BKN017 OVC200
      TEMPO 1720/1724 SCT020
     FM180000 VRB05KT P6SM OVC017
     FM181300 VRB05KT P6SM OVC025=



000
FTUS46 KSGX 171900 AAA
TAFSAN
TAF AMD
KSAN 171951Z 1720/1824 20009KT P6SM BKN019 BKN200
      TEMPO 1720/1724 SCT020 BKN200
     FM180130 VRB05KT P6SM OVC018
     FM181100 19009KT P6SM OVC025
     FM181730 20009KT P6SM SCT025 BKN150=



000
FTUS46 KSGX 171700
TAFSAN
TAF
KSAN 171721Z 1718/1824 20009KT P6SM BKN019 BKN200
     FM171930 20009KT P6SM SCT020 BKN200
     FM180130 VRB05KT P6SM OVC018
     FM181100 19009KT P6SM OVC025
     FM181730 20009KT P6SM SCT025 BKN150=



000
FTUS46 KSGX 171700
TAFSNA
TAF
KSNA 171721Z 1718/1818 18007KT P6SM BKN019 OVC200
     FM171900 20011KT P6SM SCT020 BKN200
     FM180330 VRB04KT P6SM OVC018
     FM181300 VRB05KT P6SM BKN025=



000
FTUS46 KSGX 171700
TAFONT
TAF
KONT 171721Z 1718/1824 VRB05KT 5SM HZ SCT015 BKN200
     FM172100 26012KT P6SM BKN200
     FM180400 VRB04KT P6SM BKN200
     FM180800 VRB04KT 5SM BR BKN012
     FM181730 VRB05KT 5SM HZ SCT015 SCT200
     FM182100 26012KT P6SM SCT200=



000
FTUS46 KSGX 171700
TAFTRM
TAF
KTRM 171721Z 1718/1818 VRB06KT P6SM SCT200
     FM171930 14012KT P6SM SCT200
     FM180100 VRB06KT P6SM SCT200=



000
FTUS46 KSGX 171700
TAFPSP
TAF
KPSP 171721Z 1718/1818 VRB06KT P6SM SCT200=



000
FTUS46 KSGX 171700
TAFCRQ
TAF
KCRQ 171721Z 1718/1818 VRB04KT P6SM BKN017 BKN200
     FM171930 24009KT P6SM SCT020 BKN200
     FM180000 VRB05KT P6SM OVC017
     FM181300 VRB05KT P6SM OVC025=



000
FTUS46 KSGX 171400 AAA
TAFSAN
TAF AMD
KSAN 171455Z 1715/1818 VRB05KT P6SM OVC015
     FM171900 20008KT P6SM SCT020 SCT200
     FM180100 VRB04KT P6SM OVC020=



000
FTUS46 KSGX 171100
TAFONT
TAF
KONT 171126Z 1712/1818 VRB04KT 6SM BR BKN008
     FM171500 VRB04KT 4SM BR SCT012
     FM171800 VRB04KT P6SM FEW015 SCT200
     FM172100 26012KT P6SM SCT200
     FM180400 VRB04KT P6SM SCT200
     FM180800 VRB04KT P6SM BKN012=



000
FTUS46 KSGX 171100
TAFPSP
TAF
KPSP 171126Z 1712/1812 VRB06KT P6SM SCT200=



000
FTUS46 KSGX 171100
TAFSAN
TAF
KSAN 171126Z 1712/1818 19006KT P6SM OVC018
     FM171900 21008KT P6SM SCT020 SCT200
     FM180100 VRB04KT P6SM OVC020=



000
FTUS46 KSGX 171100
TAFTRM
TAF
KTRM 171126Z 1712/1812 33006KT P6SM SCT200
     FM172000 13011KT P6SM SCT200
     FM180100 VRB06KT P6SM SCT200=



000
FTUS46 KSGX 171100
TAFCRQ
TAF
KCRQ 171126Z 1712/1812 VRB04KT P6SM OVC015
     FM171800 VRB04KT P6SM SCT018 SCT200
     FM172000 24008KT P6SM SCT018 SCT200
     FM180000 VRB04KT P6SM OVC017=



000
FTUS46 KSGX 171100
TAFSNA
TAF
KSNA 171126Z 1712/1812 17005KT P6SM OVC015
     FM171800 18007KT P6SM SCT018 SCT200
     FM171900 20010KT P6SM SCT018 SCT200
     FM180400 VRB04KT P6SM OVC018=



000
FTUS46 KSGX 170800 AAA
TAFSAN
TAF AMD
KSAN 170844Z 1709/1812 19006KT P6SM OVC018
     FM171900 21008KT P6SM SCT020
     FM172300 21008KT P6SM BKN020
     FM180100 VRB04KT P6SM OVC020=



000
FTUS46 KSGX 170500
TAFPSP
TAF
KPSP 170520Z 1706/1806 VRB05KT P6SM SKC
     FM171900 12009KT P6SM SKC
     FM180300 33008KT P6SM SKC=



000
FTUS46 KSGX 170500
TAFONT
TAF
KONT 170520Z 1706/1812 VRB04KT P6SM SKC
     FM171200 VRB04KT 3SM BR BKN007
     FM171530 VRB04KT 4SM BR SCT012
     FM171800 VRB04KT P6SM FEW015
     FM172100 26012KT P6SM SKC
     FM180400 VRB04KT P6SM SKC
     FM180800 VRB04KT P6SM BKN012=



000
FTUS46 KSGX 170500
TAFTRM
TAF
KTRM 170520Z 1706/1806 33006KT P6SM SKC
     FM171900 13012KT P6SM SKC
     FM180100 VRB05KT P6SM SKC=



000
FTUS46 KSGX 170500
TAFSAN
TAF
KSAN 170520Z 1706/1812 19006KT P6SM OVC018
     FM171900 21008KT P6SM SCT020
     FM172300 21008KT P6SM BKN020
     FM180100 VRB04KT P6SM OVC020=



000
FTUS46 KSGX 170500
TAFSNA
TAF
KSNA 170520Z 1706/1806 19006KT P6SM FEW015
     FM170700 17005KT P6SM OVC015
     FM171800 18007KT P6SM SCT018
     FM172000 20010KT P6SM SKC
     FM180300 VRB04KT P6SM SCT018
     FM180500 VRB04KT P6SM OVC018=



000
FTUS46 KSGX 170500
TAFCRQ
TAF
KCRQ 170520Z 1706/1806 VRB04KT P6SM OVC015
     FM171800 VRB04KT P6SM SCT018
     FM172000 24008KT P6SM SCT018
     FM180000 VRB04KT P6SM OVC017=



000
FTUS46 KSGX 170300 AAA
TAFSNA
TAF AMD
KSNA 170359Z 1704/1724 19006KT P6SM FEW015
     FM170700 17005KT P6SM OVC015
     FM171800 18007KT P6SM SCT018
     FM172000 20010KT P6SM FEW018=



000
FTUS46 KSGX 170300 AAA
TAFSAN
TAF AMD
KSAN 170305Z 1703/1806 19006KT P6SM OVC016
      TEMPO 1703/1705 SCT016
     FM171900 21008KT P6SM SCT020
     FM172300 21008KT P6SM BKN020
     FM180100 VRB04KT P6SM OVC020=



000
FTUS46 KSGX 170100 AAA
TAFCRQ
TAF AMD
KCRQ 170118Z 1701/1724 22007KT P6SM SCT015
     FM170300 VRB04KT P6SM OVC013
     FM171800 VRB04KT P6SM SCT018
     FM172000 24008KT P6SM SCT018=



000
FTUS46 KSGX 162300
TAFONT
TAF
KONT 162321Z 1700/1806 25012KT P6SM SKC
     FM170400 VRB04KT P6SM SKC
     FM171200 VRB04KT 3SM BR BKN007
     FM171530 VRB04KT 4SM BR SCT012
     FM171800 VRB04KT P6SM FEW015
     FM172100 26012KT P6SM SKC
     FM180400 VRB04KT P6SM SKC=



000
FTUS46 KSGX 162300
TAFPSP
TAF
KPSP 162321Z 1700/1724 33012KT P6SM SKC
     FM170600 VRB05KT P6SM SKC
     FM171900 12009KT P6SM SKC=



000
FTUS46 KSGX 162300
TAFSAN
TAF
KSAN 162321Z 1700/1806 21008KT P6SM BKN018
     FM170100 19006KT P6SM OVC016
     FM171900 21008KT P6SM SCT020
     FM172300 21008KT P6SM BKN020
     FM180100 VRB04KT P6SM OVC020=



000
FTUS46 KSGX 162300
TAFCRQ
TAF
KCRQ 162321Z 1700/1724 24008KT P6SM SCT015
     FM170100 VRB04KT P6SM OVC013
     FM171800 VRB04KT P6SM SCT018
     FM172000 24008KT P6SM SCT018=



000
FTUS46 KSGX 162300
TAFSNA
TAF
KSNA 162321Z 1700/1724 21008KT P6SM FEW020
     FM170300 19006KT P6SM SCT015
     FM170500 17005KT P6SM OVC015
     FM171800 18007KT P6SM SCT018
     FM172000 20010KT P6SM FEW018=



000
FTUS46 KSGX 162300
TAFTRM
TAF
KTRM 162321Z 1700/1724 14008KT P6SM SKC
     FM170200 VRB05KT P6SM SKC
     FM170500 33009KT P6SM SKC
     FM170900 VRB05KT P6SM SKC
     FM171900 13010KT P6SM SKC=



000
FTUS46 KSGX 162200 AAB
TAFSAN
TAF AMD
KSAN 162249Z 1623/1724 21008KT P6SM BKN018
     FM170100 19006KT P6SM OVC013
     FM171800 21007KT P6SM SCT017
     FM171900 21008KT P6SM FEW020=



000
FTUS46 KSGX 162000 AAA
TAFSAN
TAF AMD
KSAN 162018Z 1620/1724 21008KT P6SM FEW017
     FM170000 20006KT P6SM SCT015
     FM170100 19006KT P6SM OVC013
     FM171800 21007KT P6SM SCT017
     FM171900 21008KT P6SM FEW020=



000
FTUS46 KSGX 161700
TAFSNA
TAF
KSNA 161720Z 1618/1718 20005KT P6SM FEW020
     FM162000 21008KT P6SM FEW020
     FM170300 19006KT P6SM SCT015
     FM170500 17005KT P6SM OVC013
     FM171700 18005KT P6SM SCT018=



000
FTUS46 KSGX 161700
TAFONT
TAF
KONT 161720Z 1618/1724 VRB04KT P6SM SKC
      TEMPO 1618/1619 5SM HZ
     FM162100 26012KT P6SM SKC
     FM170400 VRB04KT P6SM SKC
     FM171200 VRB04KT 2SM BR BKN006
     FM171530 VRB05KT 4SM BR SCT012
     FM171800 VRB05KT P6SM FEW015
     FM172100 26012KT P6SM SKC=



000
FTUS46 KSGX 161700
TAFTRM
TAF
KTRM 161720Z 1618/1718 31009KT P6SM SKC
     FM161900 VRB06KT P6SM SKC
     FM162200 14007KT P6SM SKC
     FM170200 VRB06KT P6SM SKC
     FM170400 33009KT P6SM SKC
     FM170900 VRB06KT P6SM SKC=



000
FTUS46 KSGX 161700
TAFPSP
TAF
KPSP 161720Z 1618/1718 VRB06KT P6SM SKC
     FM162300 33012KT P6SM SKC
     FM170500 VRB06KT P6SM SKC=



000
FTUS46 KSGX 161700
TAFCRQ
TAF
KCRQ 161720Z 1618/1718 19005KT P6SM SCT018
     FM161900 22008KT P6SM FEW010
     FM170100 20006KT P6SM OVC010
     FM171700 19006KT P6SM SCT018=



000
FTUS46 KSGX 161700
TAFSAN
TAF
KSAN 161720Z 1618/1724 22006KT P6SM SCT020
     FM161900 22008KT P6SM FEW020
     FM170000 20006KT P6SM SCT015
     FM170200 19006KT P6SM OVC013
     FM171800 21007KT P6SM SCT017
     FM171900 21008KT P6SM FEW020=



000
FTUS46 KSGX 161600 AAB
TAFSAN
TAF AMD
KSAN 161626Z 1616/1718 19005KT P6SM OVC015
     FM161800 19006KT P6SM SCT017
     FM161900 21009KT P6SM SKC
     FM170000 20006KT P6SM SCT015
     FM170200 19006KT P6SM OVC015
     FM171700 21007KT P6SM FEW015=



000
FTUS46 KSGX 161500 AAA
TAFSNA
TAF AMD
KSNA 161507Z 1615/1712 VRB04KT P6SM OVC017
     FM161700 VRB04KT P6SM FEW020
     FM162100 22008KT P6SM FEW020
     FM170300 VRB06KT P6SM SCT015
     FM170500 VRB04KT P6SM BKN013=



000
FTUS46 KSGX 161400 AAA
TAFSAN
TAF AMD
KSAN 161417Z 1614/1718 VRB04KT P6SM OVC014
     FM161700 VRB04KT P6SM SCT015
     FM161900 29009KT P6SM SKC
     FM170000 29006KT P6SM SCT015
     FM170200 VRB04KT P6SM OVC015
     FM171700 VRB05KT P6SM FEW015=



000
FTUS46 KSGX 161300 AAA
TAFCRQ
TAF AMD
KCRQ 161314Z 1613/1712 VRB04KT P6SM OVC010
     FM161600 VRB04KT P6SM SCT012
     FM161900 27006KT P6SM FEW010
     FM170200 VRB04KT P6SM BKN010=



000
FTUS46 KSGX 161300 AAA
TAFONT
TAF AMD
KONT 161312Z 1613/1718 VRB04KT 2SM BR BKN005
     FM161500 VRB04KT 5SM BR BKN007
     FM161600 VRB04KT P6SM FEW008
      TEMPO 1616/1618 6SM HZ
     FM162100 26011G18KT P6SM SKC
     FM170400 VRB04KT P6SM SKC
     FM171100 VRB04KT 3SM BR BKN007
     FM171500 VRB05KT 6SM BR FEW007=



000
FTUS46 KSGX 161100
TAFTRM
TAF
KTRM 161132Z 1612/1712 VRB06KT P6SM SKC=



000
FTUS46 KSGX 161100
TAFCRQ
TAF
KCRQ 161132Z 1612/1712 VRB04KT 5SM BR OVC008
     FM161600 VRB04KT 5SM BR SCT010
     FM161900 27006KT P6SM FEW010
     FM170300 VRB04KT P6SM BKN010=



000
FTUS46 KSGX 161100
TAFONT
TAF
KONT 161132Z 1612/1718 VRB04KT 5SM BR SKC
      TEMPO 1612/1615 2SM BR SCT004
     FM161700 VRB04KT P6SM SKC
     FM162100 26011G18KT P6SM SKC
     FM170400 VRB04KT P6SM SKC
     FM171100 VRB04KT 3SM BR BKN007
     FM171500 VRB05KT 6SM BR FEW007=



000
FTUS46 KSGX 161100
TAFSNA
TAF
KSNA 161132Z 1612/1712 VRB04KT 5SM BR OVC015
     FM161700 VRB04KT P6SM FEW010
     FM162100 22008KT P6SM FEW010
     FM170400 VRB04KT P6SM BKN012=



000
FTUS46 KSGX 161100
TAFSAN
TAF
KSAN 161132Z 1612/1718 VRB04KT P6SM OVC012
     FM161700 VRB04KT P6SM SCT012
     FM161900 29009KT P6SM SKC
     FM170000 VRB04KT P6SM FEW012
     FM170400 VRB04KT P6SM OVC015
     FM171700 VRB05KT P6SM FEW015=



000
FTUS46 KSGX 161100
TAFPSP
TAF
KPSP 161132Z 1612/1712 VRB04KT P6SM SKC
     FM162100 33010KT P6SM SKC
     FM170400 VRB05KT P6SM SKC=



000
FTUS46 KSGX 160900 AAA
TAFSAN
TAF AMD
KSAN 160905Z 1609/1712 VRB04KT P6SM OVC012
     FM161700 VRB04KT P6SM SCT012
     FM161900 29010KT P6SM SKC
     FM170100 VRB04KT P6SM FEW012
     FM170400 VRB04KT P6SM OVC012=



000
FTUS46 KSGX 160500
TAFCRQ
TAF
KCRQ 160520Z 1606/1706 VRB04KT P6SM OVC010
     FM160900 VRB04KT 5SM BR OVC008
     FM161600 VRB04KT 5SM BR SCT010
     FM161900 27007KT P6SM FEW010
     FM170100 VRB04KT P6SM BKN010=



000
FTUS46 KSGX 160500
TAFONT
TAF
KONT 160520Z 1606/1712 VRB04KT P6SM SKC
     FM161100 VRB04KT 5SM BR SKC
      TEMPO 1612/1615 2SM BR SCT004
     FM161700 VRB04KT P6SM SKC
     FM162100 26011G18KT P6SM SKC
     FM170400 VRB04KT P6SM SKC
     FM170900 VRB04KT 5SM BR BKN007=



000
FTUS46 KSGX 160500
TAFSNA
TAF
KSNA 160520Z 1606/1706 VRB04KT 6SM BR OVC007
     FM160700 VRB04KT 5SM BR OVC007
     FM161700 VRB04KT P6SM FEW010
     FM162100 22008KT P6SM FEW010
     FM170300 VRB04KT P6SM BKN010=



000
FTUS46 KSGX 160500
TAFTRM
TAF
KTRM 160520Z 1606/1706 33008KT P6SM SKC
     FM161200 VRB04KT P6SM SKC
     FM162100 14009KT P6SM SKC
     FM170100 VRB04KT P6SM SKC=



000
FTUS46 KSGX 160500
TAFPSP
TAF
KPSP 160520Z 1606/1706 VRB04KT P6SM SKC
     FM162100 33010KT P6SM SKC=



000
FTUS46 KSGX 160500
TAFSAN
TAF
KSAN 160520Z 1606/1712 VRB04KT P6SM SCT012
     FM160700 VRB04KT P6SM OVC012
     FM161700 VRB04KT P6SM SCT012
     FM161900 29010KT P6SM SKC
     FM170100 VRB04KT P6SM FEW012
     FM170400 VRB04KT P6SM OVC012=



000
FTUS46 KSGX 160400 AAB
TAFSAN
TAF AMD
KSAN 160457Z 1605/1706 VRB04KT P6SM SCT012
     FM160700 VRB04KT P6SM OVC012
     FM161700 VRB04KT P6SM SCT012
     FM161900 29010KT P6SM SKC
     FM170100 VRB04KT P6SM FEW012
     FM170400 VRB04KT P6SM OVC012=



000
FTUS46 KSGX 160400 AAB
TAFCRQ
TAF AMD
KCRQ 160421Z 1604/1624 VRB04KT P6SM BKN010
     FM160900 VRB04KT 5SM BR OVC008
     FM161600 VRB04KT 5SM HZ SCT010
     FM161800 27007KT P6SM SKC=



000
FTUS46 KSGX 160300 AAA
TAFSNA
TAF AMD
KSNA 160313Z 1603/1624 VRB04KT 6SM BR BKN007
     FM160700 VRB04KT 5SM BR OVC007
     FM161700 VRB04KT P6SM FEW010
     FM162100 22008KT P6SM SKC=



000
FTUS46 KSGX 160200 AAA
TAFSAN
TAF AMD
KSAN 160250Z 1603/1706 VRB04KT P6SM BKN010
     FM160600 VRB04KT P6SM OVC009
     FM161700 VRB04KT P6SM SCT010
     FM161900 29010KT P6SM SKC
     FM170100 VRB04KT P6SM FEW010
     FM170400 VRB04KT P6SM OVC010=



000
FTUS46 KSGX 160100 AAA
TAFCRQ
TAF AMD
KCRQ 160126Z 1601/1624 VRB04KT P6SM FEW008
     FM160200 VRB04KT 6SM BR BKN008
     FM160600 VRB04KT 3SM BR OVC005
     FM161600 VRB04KT 4SM HZ SCT006
     FM161800 27007KT P6SM SKC=



000
FTUS46 KSGX 152300
TAFSAN
TAF
KSAN 152327Z 1600/1706 28010KT P6SM FEW010
     FM160100 VRB04KT P6SM FEW010
     FM160400 VRB04KT P6SM OVC009
     FM161700 VRB04KT P6SM SCT010
     FM161900 29010KT P6SM SKC
     FM170100 VRB04KT P6SM FEW010
     FM170400 VRB04KT P6SM OVC010=



000
FTUS46 KSGX 152300
TAFCRQ
TAF
KCRQ 152327Z 1600/1624 VRB04KT P6SM FEW008
     FM160400 VRB04KT 6SM BR BKN007
     FM160600 VRB04KT 3SM BR OVC005
     FM161600 VRB04KT 4SM HZ SCT006
     FM161800 27007KT P6SM SKC=



000
FTUS46 KSGX 152300
TAFONT
TAF
KONT 152327Z 1600/1706 26011G18KT P6SM SKC
     FM160400 VRB04KT P6SM SKC
     FM161100 VRB04KT 5SM BR SKC
      TEMPO 1612/1615 2SM BR SCT004
     FM161700 VRB04KT P6SM SKC
     FM162100 26011G18KT P6SM SKC
     FM170400 VRB04KT P6SM SKC=



000
FTUS46 KSGX 152300
TAFTRM
TAF
KTRM 152327Z 1600/1624 VRB04KT P6SM SKC
     FM160400 33008KT P6SM SKC
     FM161200 VRB04KT P6SM SKC
     FM162100 14009KT P6SM SKC=



000
FTUS46 KSGX 152300
TAFSNA
TAF
KSNA 152327Z 1600/1624 VRB04KT P6SM FEW009
     FM160700 VRB04KT 5SM HZ OVC008
     FM161700 VRB04KT P6SM FEW010
     FM162100 22008KT P6SM SKC=



000
FTUS46 KSGX 152300
TAFPSP
TAF
KPSP 152327Z 1600/1624 VRB04KT P6SM SKC
     FM160200 33010KT P6SM SKC
     FM160600 VRB04KT P6SM SKC
     FM162300 33010KT P6SM SKC=



000
FTUS46 KSGX 152000 AAA
TAFSAN
TAF AMD
KSAN 152031Z 1521/1624 28010KT P6SM SCT010
     FM160100 VRB03KT P6SM SKC
     FM160300 VRB03KT P6SM BKN010
     FM161000 VRB05KT P6SM OVC008
     FM161700 VRB05KT P6SM SCT010
     FM162100 29010KT P6SM SKC=



000
FTUS46 KSGX 151700
TAFPSP
TAF
KPSP 151738Z 1518/1618 VRB06KT P6SM SKC
     FM160000 33012G22KT P6SM SKC
     FM160800 33006KT P6SM SKC=



000
FTUS46 KSGX 151700
TAFSAN
TAF
KSAN 151738Z 1518/1624 VRB05KT 5SM HZ BKN008
     FM151900 28010KT P6SM SCT010
     FM160100 VRB03KT P6SM SKC
     FM160300 VRB03KT P6SM BKN010
     FM161000 VRB05KT P6SM OVC008
     FM161700 VRB05KT P6SM SCT010
     FM162100 29010KT P6SM SKC=



000
FTUS46 KSGX 151700
TAFONT
TAF
KONT 151738Z 1518/1624 VRB04KT P6SM FEW200
     FM152100 26011G18KT P6SM SKC
     FM160400 VRB04KT P6SM SKC
     FM160900 VRB05KT 6SM BR SKC
      TEMPO 1612/1615 2SM BR SCT004
     FM162100 26011G18KT P6SM SKC=



000
FTUS46 KSGX 151700
TAFTRM
TAF
KTRM 151738Z 1518/1618 VRB06KT P6SM SKC
     FM160500 33012G22KT P6SM SKC
     FM160800 33006KT P6SM SKC=



000
FTUS46 KSGX 151700
TAFCRQ
TAF
KCRQ 151738Z 1518/1618 VRB04KT P6SM SKC
     FM152000 25009KT P6SM FEW006
     FM160100 VRB03KT P6SM SCT007
     FM160400 VRB05KT 6SM BR BKN006
     FM160600 VRB03KT 2SM BR OVC004
     FM161600 VRB05KT 4SM HZ SCT006
     FM161700 VRB05KT P6SM SKC=



000
FTUS46 KSGX 151700
TAFSNA
TAF
KSNA 151738Z 1518/1618 VRB03KT P6SM FEW009 FEW200
     FM152000 22009KT P6SM SKC
     FM160400 VRB03KT P6SM FEW009
     FM160500 VRB05KT 5SM HZ OVC008
     FM161700 VRB05KT P6SM SCT012=



    US Dept of Commerce
    National Oceanic and Atmospheric Administration
    National Weather Service
    1325 East West Highway
    Silver Spring, MD 20910
    Page Author: NWS Internet Services Team
Disclaimer
Information Quality
Credits
Glossary
Privacy Policy
Freedom of Information Act (FOIA)
About Us
Career Opportunities